createdAt,value
2018-04-02T00:02:19.310Z,100766.46
2018-04-02T00:04:44.980Z,100765.75
2018-04-02T00:07:10.649Z,100767.89
2018-04-02T00:09:36.356Z,100767.92
2018-04-02T00:12:02.036Z,100756.52
2018-04-02T00:14:27.730Z,100759.83
2018-04-02T00:16:53.421Z,100754.72
2018-04-02T00:19:19.092Z,100764.50
2018-04-02T00:21:44.749Z,100770.52
2018-04-02T00:24:10.451Z,100771.71
2018-04-02T00:26:36.579Z,100770.70
2018-04-02T00:29:02.236Z,100773.66
2018-04-02T00:31:27.916Z,100769.28
2018-04-02T00:33:53.579Z,100771.48
2018-04-02T00:36:19.249Z,100774.10
2018-04-02T00:38:44.928Z,100771.12
2018-04-02T00:41:10.616Z,100775.02
2018-04-02T00:43:36.349Z,100773.23
2018-04-02T00:46:01.981Z,100777.86
2018-04-02T00:48:27.644Z,100751.14
2018-04-02T00:50:53.756Z,100780.41
2018-04-02T00:53:19.437Z,100773.81
2018-04-02T00:55:45.100Z,100779.61
2018-04-02T00:58:10.789Z,100774.98
2018-04-02T01:00:36.456Z,100778.12
2018-04-02T01:03:02.124Z,100778.47
2018-04-02T01:05:27.800Z,100780.19
2018-04-02T01:07:53.455Z,100782.33
2018-04-02T01:10:19.115Z,100786.17
2018-04-02T01:12:44.793Z,100791.67
2018-04-02T01:15:10.457Z,100788.77
2018-04-02T01:17:36.114Z,100793.23
2018-04-02T01:20:01.796Z,100789.84
2018-04-02T01:22:27.820Z,100792.81
2018-04-02T01:24:53.489Z,100788.64
2018-04-02T01:27:19.192Z,100782.49
2018-04-02T01:29:44.853Z,100780.48
2018-04-02T01:32:10.518Z,100783.01
2018-04-02T01:34:36.218Z,100781.27
2018-04-02T01:37:01.876Z,100785.50
2018-04-02T01:39:27.546Z,100787.25
2018-04-02T01:41:53.205Z,100786.37
2018-04-02T01:44:18.881Z,100790.03
2018-04-02T01:46:44.557Z,100784.11
2018-04-02T01:49:14.181Z,100791.78
2018-04-02T01:59:56.600Z,100786.15
2018-04-02T02:02:22.309Z,100785.80
2018-04-02T02:04:47.960Z,100782.91
2018-04-02T02:07:13.620Z,100781.81
2018-04-02T02:09:39.274Z,100782.75
2018-04-02T02:12:04.962Z,100783.69
2018-04-02T02:14:30.626Z,100779.97
2018-04-02T02:16:56.285Z,100795.92
2018-04-02T02:19:21.954Z,100786.14
2018-04-02T02:21:48.000Z,100787.47
2018-04-02T02:24:13.669Z,100785.53
2018-04-02T02:26:39.553Z,100785.72
2018-04-02T02:29:05.221Z,100780.22
2018-04-02T02:31:30.876Z,100785.39
2018-04-02T02:33:56.544Z,100773.36
2018-04-02T02:36:22.213Z,100772.91
2018-04-02T02:38:48.237Z,100766.89
2018-04-02T02:41:13.925Z,100770.06
2018-04-02T02:43:39.597Z,100773.91
2018-04-02T02:46:05.253Z,100770.45
2018-04-02T02:48:30.932Z,100767.02
2018-04-02T02:50:56.580Z,100738.55
2018-04-02T02:53:22.251Z,100763.11
2018-04-02T02:55:47.939Z,100762.69
2018-04-02T02:58:13.616Z,100759.64
2018-04-02T03:00:39.403Z,100761.11
2018-04-02T03:03:05.101Z,100761.56
2018-04-02T03:05:30.780Z,100759.36
2018-04-02T03:07:56.456Z,100762.82
2018-04-02T03:10:22.147Z,100759.30
2018-04-02T03:12:47.816Z,100766.70
2018-04-02T03:15:13.476Z,100758.94
2018-04-02T03:17:39.143Z,100764.98
2018-04-02T03:20:05.117Z,100764.59
2018-04-02T03:22:30.778Z,100766.73
2018-04-02T03:24:56.472Z,100764.66
2018-04-02T03:27:22.148Z,100761.69
2018-04-02T03:29:47.837Z,100756.41
2018-04-02T03:32:13.518Z,100756.90
2018-04-02T03:34:39.196Z,100758.22
2018-04-02T03:37:05.337Z,100762.11
2018-04-02T03:39:31.004Z,100760.00
2018-04-02T03:41:56.660Z,100755.34
2018-04-02T03:44:22.353Z,100757.80
2018-04-02T03:46:48.001Z,100760.78
2018-04-02T03:49:13.657Z,100755.05
2018-04-02T03:51:39.328Z,100762.66
2018-04-02T03:54:05.332Z,100756.70
2018-04-02T03:56:30.987Z,100758.06
2018-04-02T03:58:56.668Z,100765.02
2018-04-02T04:01:22.336Z,100764.47
2018-04-02T04:03:47.987Z,100748.97
2018-04-02T04:06:13.655Z,100761.75
2018-04-02T04:08:39.329Z,100762.14
2018-04-02T04:11:05.239Z,100755.93
2018-04-02T04:13:30.916Z,100756.28
2018-04-02T04:15:56.569Z,100758.81
2018-04-02T04:18:22.248Z,100759.65
2018-04-02T04:20:47.920Z,100759.65
2018-04-02T04:23:13.585Z,100757.29
2018-04-02T04:25:39.266Z,100758.52
2018-04-02T04:28:05.276Z,100752.98
2018-04-02T04:30:30.944Z,100761.27
2018-04-02T04:32:56.624Z,100757.94
2018-04-02T04:35:22.320Z,100766.48
2018-04-02T04:37:48.021Z,100764.14
2018-04-02T04:40:13.699Z,100762.23
2018-04-02T04:42:39.365Z,100759.13
2018-04-02T04:45:05.028Z,100761.63
2018-04-02T04:47:30.696Z,100764.31
2018-04-02T04:49:56.364Z,100765.99
2018-04-02T04:52:22.069Z,100777.25
2018-04-02T04:54:47.752Z,100772.53
2018-04-02T04:57:13.878Z,100774.76
2018-04-02T04:59:39.532Z,100776.41
2018-04-02T05:02:05.196Z,100773.34
2018-04-02T05:04:30.906Z,100778.80
2018-04-02T05:06:56.571Z,100772.66
2018-04-02T05:09:22.241Z,100777.64
2018-04-02T05:11:47.937Z,100776.54
2018-04-02T05:14:13.588Z,100773.30
2018-04-02T05:16:39.248Z,100766.66
2018-04-02T05:19:04.949Z,100769.97
2018-04-02T05:21:30.629Z,100769.37
2018-04-02T05:23:56.844Z,100772.13
2018-04-02T05:26:22.524Z,100769.05
2018-04-02T05:28:48.190Z,100766.39
2018-04-02T05:31:14.453Z,100771.22
2018-04-02T05:33:39.541Z,100775.30
2018-04-02T05:36:05.241Z,100770.82
2018-04-02T05:38:30.910Z,100773.59
2018-04-02T05:40:56.588Z,100777.88
2018-04-02T05:43:22.252Z,100776.83
2018-04-02T05:45:47.908Z,100779.61
2018-04-02T05:48:13.574Z,100779.44
2018-04-02T05:50:39.924Z,100775.84
2018-04-02T05:53:05.585Z,100776.77
2018-04-02T05:55:31.262Z,100778.48
2018-04-02T05:57:56.941Z,100776.28
2018-04-02T06:00:22.601Z,100773.45
2018-04-02T06:02:48.286Z,100769.11
2018-04-02T06:05:14.073Z,100768.55
2018-04-02T06:07:39.860Z,100774.30
2018-04-02T06:10:05.534Z,100780.31
2018-04-02T06:12:31.200Z,100778.67
2018-04-02T06:14:56.868Z,100781.84
2018-04-02T06:17:22.551Z,100777.03
2018-04-02T06:19:48.207Z,100775.89
2018-04-02T06:22:13.877Z,100786.35
2018-04-02T06:24:39.866Z,100780.53
2018-04-02T06:27:05.533Z,100781.79
2018-04-02T06:29:31.200Z,100784.48
2018-04-02T06:31:56.877Z,100786.25
2018-04-02T06:34:22.550Z,100788.97
2018-04-02T06:36:48.208Z,100775.84
2018-04-02T06:39:13.880Z,100783.34
2018-04-02T06:41:39.544Z,100786.48
2018-04-02T06:44:05.225Z,100784.55
2018-04-02T06:46:30.895Z,100787.11
2018-04-02T06:48:56.546Z,100785.17
2018-04-02T06:51:22.201Z,100782.20
2018-04-02T06:53:48.355Z,100781.27
2018-04-02T06:56:14.017Z,100786.58
2018-04-02T06:58:39.674Z,100783.80
2018-04-02T07:01:05.384Z,100784.73
2018-04-02T07:03:31.060Z,100789.89
2018-04-02T07:05:56.725Z,100787.72
2018-04-02T07:08:22.445Z,100783.63
2018-04-02T07:10:48.095Z,100785.77
2018-04-02T07:13:13.761Z,100787.22
2018-04-02T07:15:39.444Z,100784.31
2018-04-02T07:18:05.109Z,100785.91
2018-04-02T07:20:30.777Z,100782.04
2018-04-02T07:22:56.472Z,100784.44
2018-04-02T07:25:22.465Z,100787.42
2018-04-02T07:27:48.131Z,100781.45
2018-04-02T07:30:13.804Z,100779.97
2018-04-02T07:32:39.462Z,100777.94
2018-04-02T07:35:05.126Z,100781.38
2018-04-02T07:37:30.816Z,100787.86
2018-04-02T07:39:56.508Z,100780.20
2018-04-02T07:42:22.175Z,100783.28
2018-04-02T07:44:47.856Z,100778.39
2018-04-02T07:47:13.532Z,100787.00
2018-04-02T07:49:39.233Z,100780.96
2018-04-02T07:52:04.914Z,100787.66
2018-04-02T07:54:30.587Z,100783.49
2018-04-02T07:56:56.268Z,100778.67
2018-04-02T07:59:22.424Z,100788.70
2018-04-02T08:01:48.093Z,100787.04
2018-04-02T08:04:13.806Z,100794.62
2018-04-02T08:06:39.431Z,100794.89
2018-04-02T08:09:05.109Z,100793.11
2018-04-02T08:11:30.819Z,100786.25
2018-04-02T08:13:56.477Z,100793.99
2018-04-02T08:16:22.132Z,100794.50
2018-04-02T08:18:48.360Z,100799.24
2018-04-02T08:21:14.023Z,100796.45
2018-04-02T08:23:39.701Z,100798.84
2018-04-02T08:26:05.381Z,100796.70
2018-04-02T08:28:31.052Z,100786.35
2018-04-02T08:30:56.756Z,100786.63
2018-04-02T08:33:22.412Z,100784.77
2018-04-02T08:35:48.337Z,100788.44
2018-04-02T08:38:13.992Z,100785.64
2018-04-02T08:40:39.673Z,100780.13
2018-04-02T08:43:05.352Z,100761.72
2018-04-02T08:45:31.025Z,100780.53
2018-04-02T08:47:56.681Z,100779.62
2018-04-02T08:50:22.388Z,100771.73
2018-04-02T08:52:48.056Z,100775.59
2018-04-02T08:55:13.729Z,100773.34
2018-04-02T08:57:39.894Z,100769.66
2018-04-02T09:00:05.599Z,100768.29
2018-04-02T09:02:31.255Z,100766.22
2018-04-02T09:04:56.926Z,100769.89
2018-04-02T09:07:22.603Z,100778.58
2018-04-02T09:09:48.279Z,100777.44
2018-04-02T09:12:13.977Z,100770.95
2018-04-02T09:14:39.656Z,100773.31
2018-04-02T09:17:05.316Z,100773.48
2018-04-02T09:19:30.987Z,100766.02
2018-04-02T09:21:56.683Z,100757.50
2018-04-02T09:24:22.761Z,100768.58
2018-04-02T09:26:48.448Z,100760.95
2018-04-02T09:29:14.160Z,100762.80
2018-04-02T09:31:39.840Z,100766.66
2018-04-02T09:34:05.516Z,100754.55
2018-04-02T09:36:31.206Z,100756.92
2018-04-02T09:38:56.894Z,100749.03
2018-04-02T09:41:22.566Z,100746.19
2018-04-02T09:43:48.239Z,100742.02
2018-04-02T09:46:13.908Z,100743.33
2018-04-02T09:48:39.640Z,100751.87
2018-04-02T09:51:05.300Z,100746.70
2018-04-02T09:53:30.972Z,100733.59
2018-04-02T09:55:57.203Z,100727.48
2018-04-02T09:58:22.861Z,100728.00
2018-04-02T10:00:48.823Z,100726.32
2018-04-02T10:03:14.508Z,100728.42
2018-04-02T10:05:40.156Z,100728.36
2018-04-02T10:08:05.829Z,100716.69
2018-04-02T10:10:31.533Z,100716.49
2018-04-02T10:12:57.183Z,100714.05
2018-04-02T10:15:22.994Z,100721.85
2018-04-02T10:17:48.652Z,100709.98
2018-04-02T10:20:14.340Z,100698.73
2018-04-02T10:22:40.038Z,100705.06
2018-04-02T10:25:05.719Z,100699.99
2018-04-02T10:27:31.798Z,100698.22
2018-04-02T10:29:57.545Z,100704.23
2018-04-02T10:32:23.173Z,100691.55
2018-04-02T10:34:48.839Z,100696.16
2018-04-02T10:37:14.527Z,100694.37
2018-04-02T10:39:40.204Z,100687.23
2018-04-02T10:42:05.885Z,100681.25
2018-04-02T10:44:31.582Z,100683.31
2018-04-02T10:46:57.356Z,100677.75
2018-04-02T10:49:23.037Z,100680.86
2018-04-02T10:51:49.293Z,100675.41
2018-04-02T10:54:14.949Z,100676.36
2018-04-02T10:56:40.638Z,100671.95
2018-04-02T10:59:06.315Z,100671.17
2018-04-02T11:01:31.985Z,100669.63
2018-04-02T11:03:57.633Z,100665.42
2018-04-02T11:06:23.323Z,100668.59
2018-04-02T11:08:49.317Z,100659.05
2018-04-02T11:11:15.025Z,100658.95
2018-04-02T11:13:40.716Z,100653.52
2018-04-02T11:16:06.389Z,100657.80
2018-04-02T11:18:32.039Z,100658.45
2018-04-02T11:20:57.734Z,100657.52
2018-04-02T11:23:23.412Z,100652.43
2018-04-02T11:25:49.708Z,100645.16
2018-04-02T11:28:15.380Z,100647.16
2018-04-02T11:30:41.040Z,100641.88
2018-04-02T11:33:06.691Z,100636.87
2018-04-02T11:35:32.373Z,100635.47
2018-04-02T11:37:58.053Z,100609.25
2018-04-02T11:40:23.734Z,100625.59
2018-04-02T11:42:49.472Z,100626.41
2018-04-02T11:45:15.089Z,100627.48
2018-04-02T11:47:40.770Z,100623.70
2018-04-02T11:50:06.799Z,100611.97
2018-04-02T11:52:32.457Z,100614.26
2018-04-02T11:54:58.130Z,100617.78
2018-04-02T11:57:23.808Z,100614.65
2018-04-02T11:59:49.463Z,100602.31
2018-04-02T12:02:15.136Z,100603.59
2018-04-02T12:04:40.817Z,100598.80
2018-04-02T12:07:06.509Z,100601.46
2018-04-02T12:09:32.168Z,100605.14
2018-04-02T12:11:57.884Z,100601.27
2018-04-02T12:19:54.517Z,100589.81
2018-04-02T12:22:20.177Z,100581.11
2018-04-02T12:24:45.834Z,100567.62
2018-04-02T12:27:11.504Z,100567.05
2018-04-02T12:29:37.178Z,100568.55
2018-04-02T12:32:02.843Z,100572.55
2018-04-02T12:34:28.514Z,100562.27
2018-04-02T12:36:54.205Z,100563.36
2018-04-02T12:39:19.858Z,100554.52
2018-04-02T12:41:45.559Z,100557.17
2018-04-02T12:44:11.276Z,100557.75
2018-04-02T12:46:36.933Z,100557.84
2018-04-02T12:49:03.019Z,100522.77
2018-04-02T12:51:28.712Z,100544.73
2018-04-02T12:53:54.380Z,100538.51
2018-04-02T12:56:20.068Z,100533.60
2018-04-02T12:58:45.746Z,100533.47
2018-04-02T13:01:11.409Z,100527.80
2018-04-02T13:03:37.102Z,100540.44
2018-04-02T13:06:03.220Z,100544.06
2018-04-02T13:08:28.885Z,100551.08
2018-04-02T13:10:54.560Z,100536.03
2018-04-02T13:13:20.225Z,100532.71
2018-04-02T13:15:45.889Z,100521.38
2018-04-02T13:18:11.583Z,100521.27
2018-04-02T13:20:37.277Z,100520.55
2018-04-02T13:23:02.933Z,100509.72
2018-04-02T13:25:29.080Z,100510.44
2018-04-02T13:27:54.757Z,100507.17
2018-04-02T13:30:20.424Z,100497.23
2018-04-02T13:32:46.122Z,100491.37
2018-04-02T13:35:11.832Z,100487.00
2018-04-02T13:37:37.484Z,100484.47
2018-04-02T13:40:03.182Z,100488.73
2018-04-02T13:42:28.866Z,100494.96
2018-04-02T13:44:54.527Z,100492.45
2018-04-02T13:47:20.224Z,100489.47
2018-04-02T13:49:45.896Z,100486.19
2018-04-02T13:52:11.947Z,100488.88
2018-04-02T13:54:37.630Z,100486.42
2018-04-02T13:57:03.299Z,100484.91
2018-04-02T13:59:28.999Z,100477.98
2018-04-02T14:01:54.675Z,100480.39
2018-04-02T14:04:20.353Z,100477.39
2018-04-02T14:06:46.013Z,100474.66
2018-04-02T14:09:11.698Z,100463.75
2018-04-02T14:11:37.364Z,100460.84
2018-04-02T14:14:03.066Z,100463.72
2018-04-02T14:16:28.728Z,100459.17
2018-04-02T14:18:54.385Z,100452.68
2018-04-02T14:21:20.152Z,100450.95
2018-04-02T14:23:46.694Z,100450.48
2018-04-02T14:26:12.358Z,100447.44
2018-04-02T14:28:38.040Z,100439.83
2018-04-02T14:31:03.707Z,100434.80
2018-04-02T14:33:29.370Z,100437.63
2018-04-02T14:35:55.073Z,100437.14
2018-04-02T14:38:20.784Z,100424.34
2018-04-02T14:40:46.451Z,100428.89
2018-04-02T14:43:12.146Z,100423.45
2018-04-02T14:45:37.820Z,100429.67
2018-04-02T14:48:03.480Z,100421.13
2018-04-02T14:50:29.229Z,100423.77
2018-04-02T14:52:54.891Z,100416.98
2018-04-02T14:55:20.546Z,100409.64
2018-04-02T14:57:46.220Z,100412.75
2018-04-02T15:00:11.872Z,100405.16
2018-04-02T15:02:37.545Z,100406.06
2018-04-02T15:05:03.243Z,100398.93
2018-04-02T15:07:28.896Z,100392.67
2018-04-02T15:09:54.564Z,100390.20
2018-04-02T15:13:33.029Z,100394.58
2018-04-02T15:15:58.685Z,100387.41
2018-04-02T15:18:24.344Z,100381.19
2018-04-02T15:20:50.028Z,100377.30
2018-04-02T15:23:16.143Z,100365.95
2018-04-02T15:25:41.872Z,100361.94
2018-04-02T15:28:07.576Z,100361.94
2018-04-02T15:30:33.252Z,100365.05
2018-04-02T15:32:58.897Z,100354.91
2018-04-02T15:35:24.585Z,100349.75
2018-04-02T15:37:50.268Z,100344.73
2018-04-02T15:40:15.915Z,100340.91
2018-04-02T15:42:41.596Z,100338.09
2018-04-02T15:45:07.246Z,100334.75
2018-04-02T15:47:32.927Z,100341.16
2018-04-02T15:49:58.593Z,100330.64
2018-04-02T15:52:24.622Z,100327.19
2018-04-02T15:54:50.312Z,100326.95
2018-04-02T15:57:16.000Z,100316.98
2018-04-02T15:59:41.664Z,100317.98
2018-04-02T16:02:07.328Z,100304.25
2018-04-02T16:04:32.997Z,100299.61
2018-04-02T16:06:58.651Z,100301.09
2018-04-02T16:09:24.641Z,100300.74
2018-04-02T16:11:50.344Z,100294.09
2018-04-02T16:14:16.018Z,100297.02
2018-04-02T16:16:41.684Z,100293.62
2018-04-02T16:19:07.372Z,100289.38
2018-04-02T16:21:33.028Z,100292.34
2018-04-02T16:23:58.703Z,100284.41
2018-04-02T16:26:24.876Z,100290.19
2018-04-02T16:28:50.549Z,100284.69
2018-04-02T16:31:16.280Z,100281.34
2018-04-02T16:33:42.606Z,100284.87
2018-04-02T16:36:08.358Z,100284.39
2018-04-02T16:38:34.029Z,100281.17
2018-04-02T16:40:59.711Z,100273.45
2018-04-02T16:43:25.386Z,100271.80
2018-04-02T16:45:51.906Z,100276.38
2018-04-02T16:48:18.189Z,100266.59
2018-04-02T16:50:43.896Z,100266.66
2018-04-02T16:53:09.578Z,100262.66
2018-04-02T16:55:35.281Z,100263.66
2018-04-02T16:58:00.940Z,100261.69
2018-04-02T17:00:26.620Z,100266.01
2018-04-02T17:02:52.333Z,100264.33
2018-04-02T17:05:18.388Z,100263.95
2018-04-02T17:07:44.048Z,100253.61
2018-04-02T17:10:09.732Z,100252.62
2018-04-02T17:12:35.390Z,100255.16
2018-04-02T17:15:01.053Z,100246.69
2018-04-02T17:17:26.740Z,100243.06
2018-04-02T17:19:52.393Z,100237.91
2018-04-02T17:22:18.061Z,100231.14
2018-04-02T17:24:43.781Z,100238.02
2018-04-02T17:27:09.537Z,100239.94
2018-04-02T17:29:35.203Z,100241.15
2018-04-02T17:32:00.878Z,100237.83
2018-04-02T17:34:26.524Z,100233.86
2018-04-02T17:36:52.181Z,100238.98
2018-04-02T17:39:17.872Z,100235.05
2018-04-02T17:41:43.556Z,100227.28
2018-04-02T17:44:09.217Z,100228.27
2018-04-02T17:46:34.916Z,100219.41
2018-04-02T17:49:00.577Z,100225.97
2018-04-02T17:51:26.246Z,100232.20
2018-04-02T17:53:52.320Z,100228.30
2018-04-02T17:56:17.975Z,100217.14
2018-04-02T17:58:43.677Z,100216.31
2018-04-02T18:01:09.352Z,100213.95
2018-04-02T18:03:35.016Z,100209.92
2018-04-02T18:06:00.682Z,100212.31
2018-04-02T18:08:26.366Z,100211.23
2018-04-02T18:10:52.404Z,100202.82
2018-04-02T18:13:18.092Z,100201.89
2018-04-02T18:15:43.886Z,100198.40
2018-04-02T18:18:09.575Z,100198.78
2018-04-02T18:20:35.903Z,100174.69
2018-04-02T18:23:01.568Z,100186.80
2018-04-02T18:25:27.258Z,100181.17
2018-04-02T18:27:52.907Z,100174.20
2018-04-02T18:30:18.880Z,100173.44
2018-04-02T18:32:44.570Z,100165.89
2018-04-02T18:35:10.325Z,100172.64
2018-04-02T18:37:35.984Z,100164.78
2018-04-02T18:40:01.653Z,100165.73
2018-04-02T18:42:27.341Z,100159.25
2018-04-02T18:44:53.026Z,100156.02
2018-04-02T18:47:18.701Z,100154.14
2018-04-02T18:49:44.430Z,100149.25
2018-04-02T18:52:10.095Z,100144.01
2018-04-02T18:54:36.039Z,100143.40
2018-04-02T18:57:01.735Z,100147.39
2018-04-02T18:59:27.424Z,100145.17
2018-04-02T19:01:53.090Z,100137.41
2018-04-02T19:04:18.802Z,100129.03
2018-04-02T19:06:44.586Z,100130.21
2018-04-02T19:09:10.339Z,100118.55
2018-04-02T19:11:36.032Z,100118.65
2018-04-02T19:14:01.707Z,100115.05
2018-04-02T19:16:27.372Z,100112.80
2018-04-02T19:18:53.755Z,100094.33
2018-04-02T19:21:19.431Z,100108.46
2018-04-02T19:23:45.240Z,100099.17
2018-04-02T19:26:10.929Z,100103.88
2018-04-02T19:28:36.608Z,100102.94
2018-04-02T19:31:02.264Z,100095.53
2018-04-02T19:33:27.933Z,100089.05
2018-04-02T19:35:53.636Z,100090.64
2018-04-02T19:38:19.308Z,100096.27
2018-04-02T19:40:44.965Z,100092.21
2018-04-02T19:43:10.632Z,100088.29
2018-04-02T19:45:36.301Z,100085.10
2018-04-02T19:48:01.976Z,100067.42
2018-04-02T19:50:27.660Z,100064.67
2018-04-02T19:52:53.330Z,100062.56
2018-04-02T19:55:19.012Z,100063.38
2018-04-02T19:57:44.966Z,100049.23
2018-04-02T20:00:10.709Z,100041.39
2018-04-02T20:02:36.369Z,100038.09
2018-04-02T20:05:02.032Z,100030.82
2018-04-02T20:07:27.712Z,100025.38
2018-04-02T20:09:53.361Z,100013.50
2018-04-02T20:12:19.040Z,100024.48
2018-04-02T20:14:44.741Z,100020.46
2018-04-02T20:17:10.411Z,100015.00
2018-04-02T20:19:36.068Z,100007.77
2018-04-02T20:22:01.782Z,100004.64
2018-04-02T20:24:27.752Z,100004.70
2018-04-02T20:26:53.464Z,100005.66
2018-04-02T20:29:19.160Z,99999.69
2018-04-02T20:31:44.834Z,99997.01
2018-04-02T20:34:10.507Z,99983.86
2018-04-02T20:36:36.191Z,99986.48
2018-04-02T20:39:01.852Z,99982.14
2018-04-02T20:41:27.780Z,99983.92
2018-04-02T20:43:53.452Z,99982.04
2018-04-02T20:46:19.103Z,99972.40
2018-04-02T20:48:44.795Z,99974.60
2018-04-02T20:51:10.531Z,99963.34
2018-04-02T20:53:36.190Z,99961.05
2018-04-02T20:56:01.859Z,99955.59
2018-04-02T20:58:27.786Z,99950.11
2018-04-02T21:00:53.432Z,99948.38
2018-04-02T21:03:19.111Z,99951.16
2018-04-02T21:05:44.768Z,99951.38
2018-04-02T21:08:10.437Z,99953.35
2018-04-02T21:10:36.161Z,99949.75
2018-04-02T21:13:01.840Z,99945.41
2018-04-02T21:15:27.501Z,99944.68
2018-04-02T21:17:53.262Z,99944.73
2018-04-02T21:20:19.231Z,99937.16
2018-04-02T21:22:44.902Z,99931.67
2018-04-02T21:25:10.569Z,99926.23
2018-04-02T21:27:36.273Z,99925.59
2018-04-02T21:30:01.958Z,99920.23
2018-04-02T21:32:27.637Z,99912.48
2018-04-02T21:34:53.310Z,99907.80
2018-04-02T21:37:18.971Z,99899.41
2018-04-02T21:39:44.658Z,99895.77
2018-04-02T21:42:10.333Z,99891.78
2018-04-02T21:44:36.004Z,99887.80
2018-04-02T21:47:01.692Z,99869.50
2018-04-02T21:49:27.344Z,99870.53
2018-04-02T21:51:53.549Z,99856.75
2018-04-02T21:54:19.262Z,99855.67
2018-04-02T21:56:44.979Z,99856.53
2018-04-02T21:59:10.798Z,99851.11
2018-04-02T22:01:36.499Z,99850.79
2018-04-02T22:04:02.252Z,99844.54
2018-04-02T22:06:34.206Z,99835.11
2018-04-02T22:09:00.388Z,99835.20
2018-04-02T22:11:26.011Z,99825.77
2018-04-02T22:13:51.700Z,99810.72
2018-04-02T22:16:17.348Z,99824.67
2018-04-02T22:18:42.997Z,99821.84
2018-04-02T22:21:08.676Z,99822.73
2018-04-02T22:23:34.334Z,99817.41
2018-04-02T22:26:00.013Z,99827.36
2018-04-02T22:28:25.955Z,99823.94
2018-04-02T22:30:51.632Z,99815.59
2018-04-02T22:33:17.288Z,99810.87
2018-04-02T22:35:42.964Z,99808.67
2018-04-02T22:40:34.232Z,99806.47
2018-04-02T22:42:59.909Z,99808.67
2018-04-02T22:45:25.587Z,99807.68
2018-04-02T22:47:51.340Z,99796.58
2018-04-02T22:50:17.004Z,99806.50
2018-04-02T22:52:42.926Z,99802.98
2018-04-02T22:55:08.605Z,99798.78
2018-04-02T22:57:34.277Z,99809.98
2018-04-02T22:59:59.924Z,99809.81
2018-04-02T23:02:25.588Z,99804.13
2018-04-02T23:04:51.237Z,99805.86
2018-04-02T23:07:16.908Z,99797.59
2018-04-02T23:09:42.732Z,99792.59
2018-04-02T23:12:08.396Z,99796.51
2018-04-02T23:14:34.063Z,99795.84
2018-04-02T23:16:59.762Z,99793.88
2018-04-02T23:19:25.439Z,99787.52
2018-04-02T23:21:51.106Z,99793.73
2018-04-02T23:24:16.797Z,99781.42
2018-04-02T23:26:42.520Z,99785.16
2018-04-02T23:29:08.181Z,99782.73
2018-04-02T23:31:33.872Z,99779.16
2018-04-02T23:33:59.532Z,99776.61
2018-04-02T23:36:25.184Z,99774.54
2018-04-02T23:38:50.853Z,99776.08
2018-04-02T23:41:16.513Z,99766.03
2018-04-02T23:43:42.172Z,99767.59
2018-04-02T23:46:07.860Z,99765.20
2018-04-02T23:48:33.533Z,99764.97
2018-04-02T23:50:59.207Z,99740.50
2018-04-02T23:53:24.956Z,99759.41
2018-04-02T23:55:50.612Z,99760.09
2018-04-02T23:58:16.292Z,99762.45
